sensor_id;sensor_type;location;lat;lon;timestamp;pressure;altitude;pressure_sealevel;temperature;humidity
57801;BME280;43627;42.728;23.256;2023-04-15T00:01:18;94228.16;;;7.49;100.00
57801;BME280;43627;42.728;23.256;2023-04-15T00:03:45;94224.06;;;7.54;98.87
57801;BME280;43627;42.728;23.256;2023-04-15T00:06:13;94223.88;;;7.57;100.00
57801;BME280;43627;42.728;23.256;2023-04-15T00:08:40;94219.91;;;7.67;100.00
57801;BME280;43627;42.728;23.256;2023-04-15T00:11:07;94218.94;;;7.80;100.00
57801;BME280;43627;42.728;23.256;2023-04-15T00:13:33;94225.97;;;7.86;100.00
57801;BME280;43627;42.728;23.256;2023-04-15T00:16:00;94223.22;;;7.95;100.00
57801;BME280;43627;42.728;23.256;2023-04-15T00:18:27;94206.31;;;8.00;100.00
57801;BME280;43627;42.728;23.256;2023-04-15T00:20:55;94211.25;;;8.02;100.00
57801;BME280;43627;42.728;23.256;2023-04-15T00:23:22;94218.78;;;8.07;100.00
57801;BME280;43627;42.728;23.256;2023-04-15T00:25:49;94229.91;;;8.09;100.00
57801;BME280;43627;42.728;23.256;2023-04-15T00:28:16;94232.69;;;8.00;100.00
57801;BME280;43627;42.728;23.256;2023-04-15T00:30:43;94230.25;;;8.02;100.00
57801;BME280;43627;42.728;23.256;2023-04-15T00:33:11;94230.53;;;8.04;100.00
57801;BME280;43627;42.728;23.256;2023-04-15T00:35:38;94222.13;;;8.02;100.00
57801;BME280;43627;42.728;23.256;2023-04-15T00:38:05;94234.88;;;8.11;100.00
57801;BME280;43627;42.728;23.256;2023-04-15T00:40:33;94239.44;;;8.05;100.00
57801;BME280;43627;42.728;23.256;2023-04-15T00:43:01;94236.31;;;7.73;100.00
57801;BME280;43627;42.728;23.256;2023-04-15T00:45:27;94234.03;;;7.48;100.00
57801;BME280;43627;42.728;23.256;2023-04-15T00:47:55;94229.25;;;7.42;100.00
57801;BME280;43627;42.728;23.256;2023-04-15T00:50:22;94223.84;;;7.33;100.00
57801;BME280;43627;42.728;23.256;2023-04-15T00:52:49;94231.38;;;7.29;100.00
57801;BME280;43627;42.728;23.256;2023-04-15T00:55:15;94240.88;;;7.34;100.00
57801;BME280;43627;42.728;23.256;2023-04-15T00:57:43;94224.50;;;7.19;100.00
57801;BME280;43627;42.728;23.256;2023-04-15T01:00:10;94246.16;;;7.28;100.00
57801;BME280;43627;42.728;23.256;2023-04-15T01:02:37;94225.38;;;7.25;100.00
57801;BME280;43627;42.728;23.256;2023-04-15T01:05:04;94226.78;;;7.21;100.00
57801;BME280;43627;42.728;23.256;2023-04-15T01:07:31;94235.31;;;7.28;100.00
57801;BME280;43627;42.728;23.256;2023-04-15T01:09:58;94234.88;;;7.30;100.00
57801;BME280;43627;42.728;23.256;2023-04-15T01:12:26;94234.19;;;7.11;100.00
57801;BME280;43627;42.728;23.256;2023-04-15T01:14:54;94236.00;;;7.05;100.00
57801;BME280;43627;42.728;23.256;2023-04-15T01:17:23;94228.38;;;6.85;100.00
57801;BME280;43627;42.728;23.256;2023-04-15T01:19:50;94242.53;;;6.62;100.00
57801;BME280;43627;42.728;23.256;2023-04-15T01:22:17;94239.41;;;6.54;100.00
57801;BME280;43627;42.728;23.256;2023-04-15T01:24:54;94230.22;;;6.51;100.00
57801;BME280;43627;42.728;23.256;2023-04-15T01:27:24;94244.06;;;6.53;100.00
57801;BME280;43627;42.728;23.256;2023-04-15T01:29:51;94240.00;;;6.49;100.00
57801;BME280;43627;42.728;23.256;2023-04-15T01:32:18;94222.56;;;6.32;100.00
57801;BME280;43627;42.728;23.256;2023-04-15T01:34:45;94239.09;;;6.24;100.00
57801;BME280;43627;42.728;23.256;2023-04-15T01:37:12;94245.59;;;6.18;100.00
57801;BME280;43627;42.728;23.256;2023-04-15T01:39:38;94232.03;;;6.09;100.00
57801;BME280;43627;42.728;23.256;2023-04-15T01:42:05;94235.81;;;6.20;100.00
57801;BME280;43627;42.728;23.256;2023-04-15T01:44:33;94237.47;;;6.27;100.00
57801;BME280;43627;42.728;23.256;2023-04-15T01:46:59;94250.09;;;6.30;100.00
57801;BME280;43627;42.728;23.256;2023-04-15T01:49:26;94249.63;;;6.32;100.00
57801;BME280;43627;42.728;23.256;2023-04-15T01:51:53;94247.38;;;6.30;100.00
57801;BME280;43627;42.728;23.256;2023-04-15T01:54:20;94243.63;;;6.18;100.00
57801;BME280;43627;42.728;23.256;2023-04-15T01:56:46;94237.28;;;6.12;100.00
57801;BME280;43627;42.728;23.256;2023-04-15T01:59:13;94234.88;;;6.14;100.00
57801;BME280;43627;42.728;23.256;2023-04-15T02:01:40;94241.38;;;6.17;100.00
57801;BME280;43627;42.728;23.256;2023-04-15T02:04:07;94254.91;;;6.17;100.00
57801;BME280;43627;42.728;23.256;2023-04-15T02:06:42;94245.41;;;6.12;100.00
57801;BME280;43627;42.728;23.256;2023-04-15T02:09:09;94251.00;;;6.09;100.00
57801;BME280;43627;42.728;23.256;2023-04-15T02:11:36;94255.66;;;6.17;100.00
57801;BME280;43627;42.728;23.256;2023-04-15T02:14:03;94264.06;;;6.10;100.00
57801;BME280;43627;42.728;23.256;2023-04-15T02:16:31;94248.84;;;5.94;100.00
57801;BME280;43627;42.728;23.256;2023-04-15T02:18:59;94252.75;;;5.93;100.00
57801;BME280;43627;42.728;23.256;2023-04-15T02:21:26;94256.09;;;5.97;100.00
57801;BME280;43627;42.728;23.256;2023-04-15T02:23:53;94263.72;;;5.90;100.00
57801;BME280;43627;42.728;23.256;2023-04-15T02:26:20;94250.91;;;5.81;100.00
57801;BME280;43627;42.728;23.256;2023-04-15T02:28:48;94240.66;;;5.67;100.00
57801;BME280;43627;42.728;23.256;2023-04-15T02:31:16;94242.03;;;5.71;100.00
57801;BME280;43627;42.728;23.256;2023-04-15T02:33:43;94252.09;;;5.71;100.00
57801;BME280;43627;42.728;23.256;2023-04-15T02:36:10;94249.78;;;5.51;100.00
57801;BME280;43627;42.728;23.256;2023-04-15T02:38:37;94266.66;;;5.24;100.00
57801;BME280;43627;42.728;23.256;2023-04-15T02:41:08;94252.91;;;4.78;100.00
57801;BME280;43627;42.728;23.256;2023-04-15T02:43:35;94252.69;;;4.73;100.00
57801;BME280;43627;42.728;23.256;2023-04-15T02:46:02;94260.81;;;4.73;100.00
57801;BME280;43627;42.728;23.256;2023-04-15T02:48:29;94261.50;;;4.64;100.00
57801;BME280;43627;42.728;23.256;2023-04-15T02:51:18;94256.69;;;4.59;100.00
57801;BME280;43627;42.728;23.256;2023-04-15T02:53:46;94262.00;;;4.50;100.00
57801;BME280;43627;42.728;23.256;2023-04-15T02:56:14;94266.78;;;4.46;100.00
57801;BME280;43627;42.728;23.256;2023-04-15T02:58:43;94273.88;;;4.30;100.00
57801;BME280;43627;42.728;23.256;2023-04-15T03:01:10;94271.47;;;4.33;100.00
57801;BME280;43627;42.728;23.256;2023-04-15T03:03:37;94244.47;;;4.11;100.00
57801;BME280;43627;42.728;23.256;2023-04-15T03:06:04;94268.03;;;4.32;100.00
57801;BME280;43627;42.728;23.256;2023-04-15T03:08:31;94275.22;;;4.35;100.00
57801;BME280;43627;42.728;23.256;2023-04-15T03:10:58;94281.72;;;4.38;100.00
57801;BME280;43627;42.728;23.256;2023-04-15T03:13:26;94279.47;;;4.36;100.00
57801;BME280;43627;42.728;23.256;2023-04-15T03:15:52;94274.94;;;4.33;100.00
57801;BME280;43627;42.728;23.256;2023-04-15T03:18:19;94273.09;;;4.30;100.00
57801;BME280;43627;42.728;23.256;2023-04-15T03:20:46;94258.59;;;4.15;100.00
57801;BME280;43627;42.728;23.256;2023-04-15T03:23:13;94271.41;;;4.23;100.00
57801;BME280;43627;42.728;23.256;2023-04-15T03:25:40;94261.19;;;4.06;100.00
57801;BME280;43627;42.728;23.256;2023-04-15T03:28:07;94297.75;;;4.19;100.00
57801;BME280;43627;42.728;23.256;2023-04-15T03:30:34;94299.31;;;4.08;100.00
57801;BME280;43627;42.728;23.256;2023-04-15T03:33:00;94303.75;;;4.01;100.00
57801;BME280;43627;42.728;23.256;2023-04-15T03:35:27;94302.00;;;3.95;100.00
57801;BME280;43627;42.728;23.256;2023-04-15T03:37:54;94306.88;;;4.00;100.00
57801;BME280;43627;42.728;23.256;2023-04-15T03:40:21;94296.44;;;3.89;100.00
57801;BME280;43627;42.728;23.256;2023-04-15T03:42:47;94311.53;;;3.87;100.00
57801;BME280;43627;42.728;23.256;2023-04-15T03:45:14;94322.84;;;3.94;100.00
57801;BME280;43627;42.728;23.256;2023-04-15T03:47:41;94323.09;;;3.75;100.00
57801;BME280;43627;42.728;23.256;2023-04-15T03:50:08;94320.69;;;3.77;100.00
57801;BME280;43627;42.728;23.256;2023-04-15T03:52:35;94329.88;;;3.79;100.00
57801;BME280;43627;42.728;23.256;2023-04-15T03:55:01;94323.31;;;3.80;100.00
57801;BME280;43627;42.728;23.256;2023-04-15T03:57:28;94318.22;;;3.82;100.00
57801;BME280;43627;42.728;23.256;2023-04-15T03:59:55;94313.59;;;3.83;100.00
57801;BME280;43627;42.728;23.256;2023-04-15T04:02:21;94323.50;;;3.86;100.00
57801;BME280;43627;42.728;23.256;2023-04-15T04:04:49;94319.50;;;3.78;100.00
57801;BME280;43627;42.728;23.256;2023-04-15T04:07:17;94321.00;;;3.79;100.00
57801;BME280;43627;42.728;23.256;2023-04-15T04:09:43;94331.81;;;3.91;100.00
57801;BME280;43627;42.728;23.256;2023-04-15T04:12:12;94331.00;;;4.16;100.00
57801;BME280;43627;42.728;23.256;2023-04-15T04:14:39;94329.03;;;4.29;100.00
57801;BME280;43627;42.728;23.256;2023-04-15T04:17:06;94328.97;;;4.42;100.00
57801;BME280;43627;42.728;23.256;2023-04-15T04:19:33;94321.53;;;4.46;100.00
57801;BME280;43627;42.728;23.256;2023-04-15T04:21:59;94317.38;;;4.54;100.00
57801;BME280;43627;42.728;23.256;2023-04-15T04:24:26;94324.44;;;4.74;100.00
57801;BME280;43627;42.728;23.256;2023-04-15T04:26:53;94334.59;;;4.92;100.00
57801;BME280;43627;42.728;23.256;2023-04-15T04:29:20;94342.91;;;4.97;100.00
57801;BME280;43627;42.728;23.256;2023-04-15T04:31:46;94340.03;;;5.13;100.00
57801;BME280;43627;42.728;23.256;2023-04-15T04:34:14;94343.34;;;5.18;100.00
57801;BME280;43627;42.728;23.256;2023-04-15T04:36:41;94333.31;;;5.27;100.00
57801;BME280;43627;42.728;23.256;2023-04-15T04:39:08;94352.97;;;5.50;100.00
57801;BME280;43627;42.728;23.256;2023-04-15T04:41:35;94349.88;;;5.60;100.00
57801;BME280;43627;42.728;23.256;2023-04-15T04:44:01;94338.63;;;5.62;100.00
57801;BME280;43627;42.728;23.256;2023-04-15T04:46:29;94353.38;;;5.70;100.00
57801;BME280;43627;42.728;23.256;2023-04-15T04:48:55;94361.78;;;5.72;100.00
57801;BME280;43627;42.728;23.256;2023-04-15T04:51:22;94348.41;;;5.78;100.00
57801;BME280;43627;42.728;23.256;2023-04-15T04:53:50;94350.97;;;5.72;100.00
57801;BME280;43627;42.728;23.256;2023-04-15T04:56:16;94343.34;;;5.80;100.00
57801;BME280;43627;42.728;23.256;2023-04-15T04:58:43;94355.41;;;6.46;100.00
57801;BME280;43627;42.728;23.256;2023-04-15T05:01:10;94346.44;;;7.47;100.00
57801;BME280;43627;42.728;23.256;2023-04-15T05:03:36;94346.44;;;8.94;100.00
57801;BME280;43627;42.728;23.256;2023-04-15T05:06:03;94367.19;;;10.09;94.17
57801;BME280;43627;42.728;23.256;2023-04-15T05:08:32;94375.34;;;11.20;76.99
57801;BME280;43627;42.728;23.256;2023-04-15T05:10:59;94377.34;;;12.35;66.53
57801;BME280;43627;42.728;23.256;2023-04-15T05:13:26;94379.41;;;12.99;58.96
57801;BME280;43627;42.728;23.256;2023-04-15T05:15:52;94382.44;;;13.12;57.10
57801;BME280;43627;42.728;23.256;2023-04-15T05:18:19;94377.41;;;14.04;53.21
57801;BME280;43627;42.728;23.256;2023-04-15T05:20:46;94382.63;;;14.19;52.88
57801;BME280;43627;42.728;23.256;2023-04-15T05:23:12;94387.09;;;14.61;51.64
57801;BME280;43627;42.728;23.256;2023-04-15T05:25:39;94396.09;;;14.45;49.39
57801;BME280;43627;42.728;23.256;2023-04-15T05:28:06;94378.88;;;13.60;52.48
57801;BME280;43627;42.728;23.256;2023-04-15T05:30:32;94389.09;;;13.65;53.19
57801;BME280;43627;42.728;23.256;2023-04-15T05:32:59;94392.13;;;14.07;51.35
57801;BME280;43627;42.728;23.256;2023-04-15T05:35:26;94390.31;;;13.64;53.00
57801;BME280;43627;42.728;23.256;2023-04-15T05:37:53;94383.34;;;13.58;52.45
57801;BME280;43627;42.728;23.256;2023-04-15T05:40:19;94388.06;;;13.52;53.76
57801;BME280;43627;42.728;23.256;2023-04-15T05:42:46;94392.22;;;13.25;53.44
57801;BME280;43627;42.728;23.256;2023-04-15T05:45:13;94390.78;;;12.38;56.23
57801;BME280;43627;42.728;23.256;2023-04-15T05:47:39;94397.47;;;12.37;56.89
57801;BME280;43627;42.728;23.256;2023-04-15T05:50:07;94407.16;;;12.33;57.39
57801;BME280;43627;42.728;23.256;2023-04-15T05:52:33;94403.63;;;12.26;58.12
57801;BME280;43627;42.728;23.256;2023-04-15T05:55:00;94414.13;;;12.39;57.67
57801;BME280;43627;42.728;23.256;2023-04-15T05:57:27;94403.47;;;12.41;58.05
57801;BME280;43627;42.728;23.256;2023-04-15T05:59:53;94405.91;;;12.71;56.15
57801;BME280;43627;42.728;23.256;2023-04-15T06:02:22;94412.22;;;12.14;56.03
57801;BME280;43627;42.728;23.256;2023-04-15T06:04:49;94406.59;;;12.23;57.94
57801;BME280;43627;42.728;23.256;2023-04-15T06:07:16;94400.53;;;12.50;56.41
57801;BME280;43627;42.728;23.256;2023-04-15T06:09:42;94394.41;;;12.61;57.09
57801;BME280;43627;42.728;23.256;2023-04-15T06:12:10;94406.16;;;12.73;54.71
57801;BME280;43627;42.728;23.256;2023-04-15T06:14:38;94402.47;;;12.87;54.79
57801;BME280;43627;42.728;23.256;2023-04-15T06:17:06;94414.56;;;12.69;55.49
57801;BME280;43627;42.728;23.256;2023-04-15T06:19:33;94407.72;;;12.48;55.48
57801;BME280;43627;42.728;23.256;2023-04-15T06:22:00;94431.84;;;12.49;55.99
57801;BME280;43627;42.728;23.256;2023-04-15T06:24:27;94433.44;;;12.30;56.90
57801;BME280;43627;42.728;23.256;2023-04-15T06:26:54;94432.41;;;11.70;60.05
57801;BME280;43627;42.728;23.256;2023-04-15T06:29:21;94434.19;;;11.73;62.40
57801;BME280;43627;42.728;23.256;2023-04-15T06:31:48;94432.88;;;11.42;67.03
57801;BME280;43627;42.728;23.256;2023-04-15T06:34:15;94427.41;;;11.42;69.55
57801;BME280;43627;42.728;23.256;2023-04-15T06:36:42;94434.25;;;11.32;71.42
57801;BME280;43627;42.728;23.256;2023-04-15T06:39:09;94434.34;;;11.64;69.60
57801;BME280;43627;42.728;23.256;2023-04-15T06:41:36;94432.84;;;11.63;67.83
57801;BME280;43627;42.728;23.256;2023-04-15T06:44:02;94436.97;;;11.79;66.86
57801;BME280;43627;42.728;23.256;2023-04-15T06:46:29;94450.69;;;11.84;65.36
57801;BME280;43627;42.728;23.256;2023-04-15T06:48:56;94453.19;;;11.62;66.32
57801;BME280;43627;42.728;23.256;2023-04-15T06:51:22;94445.22;;;11.58;68.42
57801;BME280;43627;42.728;23.256;2023-04-15T06:53:52;94454.09;;;11.79;66.92
57801;BME280;43627;42.728;23.256;2023-04-15T06:56:18;94444.16;;;11.76;66.97
57801;BME280;43627;42.728;23.256;2023-04-15T06:58:45;94441.72;;;12.04;65.43
57801;BME280;43627;42.728;23.256;2023-04-15T07:01:12;94445.19;;;12.05;63.57
57801;BME280;43627;42.728;23.256;2023-04-15T07:03:39;94423.75;;;11.97;64.37
57801;BME280;43627;42.728;23.256;2023-04-15T07:06:07;94428.97;;;11.95;64.45
57801;BME280;43627;42.728;23.256;2023-04-15T07:08:35;94433.09;;;11.85;65.43
57801;BME280;43627;42.728;23.256;2023-04-15T07:11:02;94441.38;;;11.96;62.37
57801;BME280;43627;42.728;23.256;2023-04-15T07:13:30;94442.69;;;11.55;66.85
57801;BME280;43627;42.728;23.256;2023-04-15T07:15:57;94437.38;;;11.45;67.48
57801;BME280;43627;42.728;23.256;2023-04-15T07:18:24;94442.25;;;11.82;65.23
57801;BME280;43627;42.728;23.256;2023-04-15T07:20:51;94440.38;;;11.73;62.57
57801;BME280;43627;42.728;23.256;2023-04-15T07:23:17;94448.88;;;11.76;62.34
57801;BME280;43627;42.728;23.256;2023-04-15T07:25:44;94440.06;;;11.86;62.84
57801;BME280;43627;42.728;23.256;2023-04-15T07:28:11;94435.34;;;12.18;61.82
57801;BME280;43627;42.728;23.256;2023-04-15T07:30:37;94441.06;;;12.15;61.08
57801;BME280;43627;42.728;23.256;2023-04-15T07:33:05;94444.09;;;12.22;57.88
57801;BME280;43627;42.728;23.256;2023-04-15T07:35:31;94442.28;;;12.45;57.37
57801;BME280;43627;42.728;23.256;2023-04-15T07:37:58;94444.28;;;12.50;56.78
57801;BME280;43627;42.728;23.256;2023-04-15T07:40:25;94437.19;;;12.64;56.74
57801;BME280;43627;42.728;23.256;2023-04-15T07:42:51;94440.97;;;12.78;55.35
57801;BME280;43627;42.728;23.256;2023-04-15T07:45:18;94438.91;;;12.62;55.28
57801;BME280;43627;42.728;23.256;2023-04-15T07:47:45;94448.50;;;12.46;56.18
57801;BME280;43627;42.728;23.256;2023-04-15T07:50:12;94454.91;;;12.74;55.69
57801;BME280;43627;42.728;23.256;2023-04-15T07:52:39;94450.63;;;13.16;54.79
57801;BME280;43627;42.728;23.256;2023-04-15T07:55:06;94444.03;;;13.39;52.80
57801;BME280;43627;42.728;23.256;2023-04-15T07:57:36;94452.41;;;14.07;51.95
57801;BME280;43627;42.728;23.256;2023-04-15T08:00:03;94463.66;;;14.59;48.11
57801;BME280;43627;42.728;23.256;2023-04-15T08:02:31;94464.88;;;14.92;47.11
57801;BME280;43627;42.728;23.256;2023-04-15T08:04:58;94462.88;;;14.98;46.35
57801;BME280;43627;42.728;23.256;2023-04-15T08:07:25;94451.09;;;15.14;47.65
57801;BME280;43627;42.728;23.256;2023-04-15T08:09:52;94444.09;;;15.19;46.08
57801;BME280;43627;42.728;23.256;2023-04-15T08:12:19;94452.97;;;15.47;45.24
57801;BME280;43627;42.728;23.256;2023-04-15T08:14:46;94463.41;;;14.57;43.53
57801;BME280;43627;42.728;23.256;2023-04-15T08:17:12;94457.66;;;14.44;43.17
57801;BME280;43627;42.728;23.256;2023-04-15T08:19:39;94444.69;;;14.44;43.03
57801;BME280;43627;42.728;23.256;2023-04-15T08:22:06;94461.38;;;14.91;44.44
57801;BME280;43627;42.728;23.256;2023-04-15T08:24:43;94465.84;;;15.11;42.53
57801;BME280;43627;42.728;23.256;2023-04-15T08:27:09;94463.16;;;14.72;42.47
57801;BME280;43627;42.728;23.256;2023-04-15T08:29:36;94450.94;;;14.78;42.39
57801;BME280;43627;42.728;23.256;2023-04-15T08:32:03;94460.91;;;14.81;43.90
57801;BME280;43627;42.728;23.256;2023-04-15T08:34:30;94462.84;;;15.09;41.88
57801;BME280;43627;42.728;23.256;2023-04-15T08:36:57;94462.06;;;15.14;40.82
57801;BME280;43627;42.728;23.256;2023-04-15T08:39:24;94457.94;;;14.79;41.79
57801;BME280;43627;42.728;23.256;2023-04-15T08:41:57;94452.34;;;15.13;40.98
57801;BME280;43627;42.728;23.256;2023-04-15T08:44:32;94449.66;;;14.91;41.76
57801;BME280;43627;42.728;23.256;2023-04-15T08:47:00;94446.66;;;14.94;43.35
57801;BME280;43627;42.728;23.256;2023-04-15T08:49:28;94449.84;;;15.15;44.25
57801;BME280;43627;42.728;23.256;2023-04-15T08:51:58;94430.94;;;14.95;42.67
57801;BME280;43627;42.728;23.256;2023-04-15T08:54:26;94427.00;;;14.79;43.24
57801;BME280;43627;42.728;23.256;2023-04-15T08:56:53;94436.75;;;14.46;41.44
57801;BME280;43627;42.728;23.256;2023-04-15T08:59:20;94409.56;;;14.26;41.84
57801;BME280;43627;42.728;23.256;2023-04-15T09:01:48;94424.25;;;14.68;41.71
57801;BME280;43627;42.728;23.256;2023-04-15T09:04:17;94435.47;;;14.64;42.57
57801;BME280;43627;42.728;23.256;2023-04-15T09:06:44;94420.78;;;14.22;39.96
57801;BME280;43627;42.728;23.256;2023-04-15T09:09:11;94411.31;;;14.12;40.47
57801;BME280;43627;42.728;23.256;2023-04-15T09:11:40;94421.75;;;14.30;41.72
57801;BME280;43627;42.728;23.256;2023-04-15T09:14:07;94417.28;;;14.55;40.97
57801;BME280;43627;42.728;23.256;2023-04-15T09:16:55;94421.72;;;14.86;40.06
57801;BME280;43627;42.728;23.256;2023-04-15T09:19:23;94414.69;;;15.08;39.51
57801;BME280;43627;42.728;23.256;2023-04-15T09:21:52;94408.16;;;15.11;38.91
57801;BME280;43627;42.728;23.256;2023-04-15T09:24:23;94395.78;;;14.82;37.32
57801;BME280;43627;42.728;23.256;2023-04-15T09:26:53;94394.91;;;15.15;39.81
57801;BME280;43627;42.728;23.256;2023-04-15T09:29:23;94407.66;;;15.12;38.72
57801;BME280;43627;42.728;23.256;2023-04-15T09:31:51;94396.69;;;15.12;37.75
57801;BME280;43627;42.728;23.256;2023-04-15T09:34:18;94409.09;;;15.30;36.72
57801;BME280;43627;42.728;23.256;2023-04-15T09:39:13;94411.81;;;15.36;35.59
57801;BME280;43627;42.728;23.256;2023-04-15T09:41:40;94406.34;;;15.83;37.16
57801;BME280;43627;42.728;23.256;2023-04-15T09:44:25;94410.28;;;15.46;37.02
57801;BME280;43627;42.728;23.256;2023-04-15T09:46:52;94406.34;;;15.30;36.84
57801;BME280;43627;42.728;23.256;2023-04-15T09:49:19;94405.88;;;15.26;38.01
57801;BME280;43627;42.728;23.256;2023-04-15T09:51:46;94411.38;;;15.15;36.55
57801;BME280;43627;42.728;23.256;2023-04-15T09:54:35;94375.00;;;15.03;34.91
57801;BME280;43627;42.728;23.256;2023-04-15T09:57:06;94397.44;;;15.13;35.37
57801;BME280;43627;42.728;23.256;2023-04-15T09:59:33;94415.78;;;14.71;35.39
57801;BME280;43627;42.728;23.256;2023-04-15T10:02:03;94402.53;;;14.75;34.25
57801;BME280;43627;42.728;23.256;2023-04-15T10:04:33;94414.53;;;14.61;33.92
57801;BME280;43627;42.728;23.256;2023-04-15T10:07:02;94400.56;;;14.37;35.50
57801;BME280;43627;42.728;23.256;2023-04-15T10:09:30;94414.06;;;14.46;36.06
57801;BME280;43627;42.728;23.256;2023-04-15T10:11:59;94413.28;;;14.79;37.54
57801;BME280;43627;42.728;23.256;2023-04-15T10:14:27;94403.88;;;15.21;36.80
57801;BME280;43627;42.728;23.256;2023-04-15T10:16:57;94409.38;;;15.27;35.29
57801;BME280;43627;42.728;23.256;2023-04-15T10:19:26;94397.09;;;15.33;35.11
57801;BME280;43627;42.728;23.256;2023-04-15T10:21:58;94401.88;;;15.27;36.41
57801;BME280;43627;42.728;23.256;2023-04-15T10:24:27;94397.00;;;14.86;36.40
57801;BME280;43627;42.728;23.256;2023-04-15T10:26:58;94397.75;;;14.87;36.69
57801;BME280;43627;42.728;23.256;2023-04-15T10:29:25;94383.28;;;14.92;36.74
57801;BME280;43627;42.728;23.256;2023-04-15T10:31:54;94390.84;;;14.69;36.25
57801;BME280;43627;42.728;23.256;2023-04-15T10:34:25;94386.25;;;15.00;36.29
57801;BME280;43627;42.728;23.256;2023-04-15T10:37:01;94399.09;;;15.33;36.29
57801;BME280;43627;42.728;23.256;2023-04-15T10:44:37;94350.97;;;15.67;33.66
57801;BME280;43627;42.728;23.256;2023-04-15T10:47:15;94384.59;;;15.38;35.47
57801;BME280;43627;42.728;23.256;2023-04-15T10:49:55;94361.69;;;15.24;34.61
57801;BME280;43627;42.728;23.256;2023-04-15T10:52:25;94368.56;;;15.42;35.79
57801;BME280;43627;42.728;23.256;2023-04-15T10:55:23;94391.16;;;15.70;35.75
57801;BME280;43627;42.728;23.256;2023-04-15T10:57:55;94389.47;;;16.03;35.60
57801;BME280;43627;42.728;23.256;2023-04-15T11:00:25;94375.59;;;16.74;34.96
57801;BME280;43627;42.728;23.256;2023-04-15T11:05:47;94381.66;;;16.37;34.68
57801;BME280;43627;42.728;23.256;2023-04-15T11:08:09;94384.78;;;16.52;34.64
57801;BME280;43627;42.728;23.256;2023-04-15T11:13:04;94373.66;;;16.39;34.47
57801;BME280;43627;42.728;23.256;2023-04-15T11:15:32;94370.47;;;16.84;35.26
57801;BME280;43627;42.728;23.256;2023-04-15T11:20:36;94355.28;;;16.53;34.82
57801;BME280;43627;42.728;23.256;2023-04-15T11:23:04;94357.09;;;16.45;35.09
57801;BME280;43627;42.728;23.256;2023-04-15T11:25:40;94366.81;;;16.76;35.74
57801;BME280;43627;42.728;23.256;2023-04-15T11:28:07;94357.50;;;17.03;34.05
57801;BME280;43627;42.728;23.256;2023-04-15T11:30:36;94356.19;;;17.10;33.97
57801;BME280;43627;42.728;23.256;2023-04-15T11:33:05;94361.13;;;17.36;32.76
57801;BME280;43627;42.728;23.256;2023-04-15T11:35:34;94356.19;;;17.48;33.74
57801;BME280;43627;42.728;23.256;2023-04-15T11:38:04;94357.13;;;17.12;32.98
57801;BME280;43627;42.728;23.256;2023-04-15T11:40:34;94362.56;;;16.75;32.55
57801;BME280;43627;42.728;23.256;2023-04-15T11:43:14;94351.69;;;16.88;33.81
57801;BME280;43627;42.728;23.256;2023-04-15T11:45:57;94349.09;;;17.33;35.07
57801;BME280;43627;42.728;23.256;2023-04-15T11:50:58;94335.63;;;17.67;33.35
57801;BME280;43627;42.728;23.256;2023-04-15T11:56:22;94328.44;;;16.59;33.45
57801;BME280;43627;42.728;23.256;2023-04-15T11:58:56;94341.16;;;16.38;34.95
57801;BME280;43627;42.728;23.256;2023-04-15T12:01:37;94350.28;;;16.51;33.20
57801;BME280;43627;42.728;23.256;2023-04-15T12:04:17;94352.13;;;16.68;33.07
57801;BME280;43627;42.728;23.256;2023-04-15T12:06:51;94336.00;;;17.21;32.87
57801;BME280;43627;42.728;23.256;2023-04-15T12:09:18;94346.78;;;17.00;32.68
57801;BME280;43627;42.728;23.256;2023-04-15T12:11:49;94354.69;;;17.09;34.14
57801;BME280;43627;42.728;23.256;2023-04-15T12:14:31;94338.06;;;16.96;32.94
57801;BME280;43627;42.728;23.256;2023-04-15T12:17:03;94358.41;;;17.11;33.57
57801;BME280;43627;42.728;23.256;2023-04-15T12:19:41;94347.88;;;16.91;31.97
57801;BME280;43627;42.728;23.256;2023-04-15T12:22:10;94362.13;;;17.14;31.16
57801;BME280;43627;42.728;23.256;2023-04-15T12:24:38;94350.06;;;16.98;29.51
57801;BME280;43627;42.728;23.256;2023-04-15T12:27:10;94333.63;;;16.68;30.02
57801;BME280;43627;42.728;23.256;2023-04-15T12:29:39;94345.84;;;16.67;30.79
57801;BME280;43627;42.728;23.256;2023-04-15T12:32:10;94347.81;;;16.97;31.46
57801;BME280;43627;42.728;23.256;2023-04-15T12:34:38;94366.25;;;17.26;30.45
57801;BME280;43627;42.728;23.256;2023-04-15T12:37:08;94355.28;;;17.21;32.08
57801;BME280;43627;42.728;23.256;2023-04-15T12:39:46;94346.69;;;17.05;33.29
57801;BME280;43627;42.728;23.256;2023-04-15T12:42:14;94358.34;;;16.74;31.82
57801;BME280;43627;42.728;23.256;2023-04-15T12:44:41;94363.22;;;17.05;31.52
57801;BME280;43627;42.728;23.256;2023-04-15T12:47:09;94359.09;;;17.36;30.92
57801;BME280;43627;42.728;23.256;2023-04-15T12:49:36;94366.25;;;16.83;31.48
57801;BME280;43627;42.728;23.256;2023-04-15T12:52:03;94349.59;;;16.94;30.87
57801;BME280;43627;42.728;23.256;2023-04-15T12:54:30;94367.16;;;17.34;30.08
57801;BME280;43627;42.728;23.256;2023-04-15T12:56:58;94362.75;;;17.26;29.67
57801;BME280;43627;42.728;23.256;2023-04-15T12:59:25;94366.09;;;17.56;29.61
57801;BME280;43627;42.728;23.256;2023-04-15T13:01:52;94356.91;;;18.05;29.03
57801;BME280;43627;42.728;23.256;2023-04-15T13:04:20;94362.72;;;18.01;29.41
57801;BME280;43627;42.728;23.256;2023-04-15T13:06:47;94352.69;;;18.17;29.27
57801;BME280;43627;42.728;23.256;2023-04-15T13:09:14;94340.56;;;18.07;29.43
57801;BME280;43627;42.728;23.256;2023-04-15T13:11:41;94365.59;;;17.77;28.88
57801;BME280;43627;42.728;23.256;2023-04-15T13:14:09;94367.06;;;17.40;30.11
57801;BME280;43627;42.728;23.256;2023-04-15T13:16:38;94359.47;;;17.84;30.74